sensor_id;sensor_type;location;lat;lon;timestamp;P1;durP1;ratioP1;P2;durP2;ratioP2
2698;SDS011;1359;51.798;12.174;2023-04-01T00:01:05;6.27;;;2.20;;
2698;SDS011;1359;51.798;12.174;2023-04-01T00:03:31;6.67;;;2.00;;
2698;SDS011;1359;51.798;12.174;2023-04-01T00:05:58;2.13;;;1.77;;
2698;SDS011;1359;51.798;12.174;2023-04-01T00:08:24;4.13;;;2.87;;
2698;SDS011;1359;51.798;12.174;2023-04-01T00:10:50;3.57;;;1.87;;
2698;SDS011;1359;51.798;12.174;2023-04-01T00:13:16;2.50;;;2.30;;
2698;SDS011;1359;51.798;12.174;2023-04-01T00:15:41;3.40;;;2.20;;
2698;SDS011;1359;51.798;12.174;2023-04-01T00:18:07;3.47;;;1.87;;
2698;SDS011;1359;51.798;12.174;2023-04-01T00:20:32;3.93;;;1.90;;
2698;SDS011;1359;51.798;12.174;2023-04-01T00:22:57;3.33;;;1.80;;
2698;SDS011;1359;51.798;12.174;2023-04-01T00:25:23;5.70;;;1.80;;
2698;SDS011;1359;51.798;12.174;2023-04-01T00:27:48;5.00;;;1.90;;
2698;SDS011;1359;51.798;12.174;2023-04-01T00:30:14;5.00;;;2.20;;
2698;SDS011;1359;51.798;12.174;2023-04-01T00:32:40;3.10;;;2.10;;
2698;SDS011;1359;51.798;12.174;2023-04-01T00:35:06;3.93;;;2.13;;
2698;SDS011;1359;51.798;12.174;2023-04-01T00:37:34;4.87;;;2.30;;
2698;SDS011;1359;51.798;12.174;2023-04-01T00:39:59;2.33;;;1.90;;
2698;SDS011;1359;51.798;12.174;2023-04-01T00:42:25;5.63;;;1.60;;
2698;SDS011;1359;51.798;12.174;2023-04-01T00:44:51;5.00;;;2.70;;
2698;SDS011;1359;51.798;12.174;2023-04-01T00:47:17;5.13;;;2.83;;
2698;SDS011;1359;51.798;12.174;2023-04-01T00:49:44;5.33;;;1.97;;
2698;SDS011;1359;51.798;12.174;2023-04-01T00:52:11;13.57;;;2.43;;
2698;SDS011;1359;51.798;12.174;2023-04-01T00:54:38;4.33;;;1.97;;
2698;SDS011;1359;51.798;12.174;2023-04-01T00:57:08;6.80;;;2.60;;
2698;SDS011;1359;51.798;12.174;2023-04-01T00:59:36;2.93;;;2.20;;
2698;SDS011;1359;51.798;12.174;2023-04-01T01:02:05;2.50;;;1.80;;
2698;SDS011;1359;51.798;12.174;2023-04-01T01:04:32;4.43;;;2.60;;
2698;SDS011;1359;51.798;12.174;2023-04-01T01:10:02;4.00;;;2.10;;
2698;SDS011;1359;51.798;12.174;2023-04-01T01:17:32;5.37;;;1.90;;
2698;SDS011;1359;51.798;12.174;2023-04-01T01:22:36;2.70;;;2.13;;
2698;SDS011;1359;51.798;12.174;2023-04-01T01:25:17;4.20;;;1.97;;
2698;SDS011;1359;51.798;12.174;2023-04-01T01:27:49;2.83;;;2.03;;
2698;SDS011;1359;51.798;12.174;2023-04-01T01:30:29;7.03;;;2.47;;
2698;SDS011;1359;51.798;12.174;2023-04-01T01:35:38;6.77;;;2.57;;
2698;SDS011;1359;51.798;12.174;2023-04-01T01:38:16;5.20;;;2.47;;
2698;SDS011;1359;51.798;12.174;2023-04-01T01:40:49;4.43;;;2.40;;
2698;SDS011;1359;51.798;12.174;2023-04-01T01:43:17;3.43;;;2.90;;
2698;SDS011;1359;51.798;12.174;2023-04-01T01:45:46;3.60;;;1.73;;
2698;SDS011;1359;51.798;12.174;2023-04-01T01:48:13;5.90;;;2.40;;
2698;SDS011;1359;51.798;12.174;2023-04-01T01:50:40;2.63;;;2.03;;
2698;SDS011;1359;51.798;12.174;2023-04-01T01:53:08;6.37;;;2.60;;
2698;SDS011;1359;51.798;12.174;2023-04-01T01:55:35;3.70;;;2.30;;
2698;SDS011;1359;51.798;12.174;2023-04-01T01:58:05;3.70;;;2.50;;
2698;SDS011;1359;51.798;12.174;2023-04-01T02:00:33;3.40;;;2.33;;
2698;SDS011;1359;51.798;12.174;2023-04-01T02:02:59;4.00;;;1.90;;
2698;SDS011;1359;51.798;12.174;2023-04-01T02:05:25;3.23;;;2.40;;
2698;SDS011;1359;51.798;12.174;2023-04-01T02:08:09;3.20;;;1.97;;
2698;SDS011;1359;51.798;12.174;2023-04-01T02:10:35;6.63;;;2.00;;
2698;SDS011;1359;51.798;12.174;2023-04-01T02:13:03;5.70;;;2.33;;
2698;SDS011;1359;51.798;12.174;2023-04-01T02:15:30;7.03;;;3.20;;
2698;SDS011;1359;51.798;12.174;2023-04-01T02:17:58;7.60;;;2.90;;
2698;SDS011;1359;51.798;12.174;2023-04-01T02:20:24;7.97;;;2.40;;
2698;SDS011;1359;51.798;12.174;2023-04-01T02:22:50;2.87;;;2.00;;
2698;SDS011;1359;51.798;12.174;2023-04-01T02:25:24;3.20;;;1.77;;
2698;SDS011;1359;51.798;12.174;2023-04-01T02:27:50;5.20;;;2.10;;
2698;SDS011;1359;51.798;12.174;2023-04-01T02:30:16;4.37;;;2.17;;
2698;SDS011;1359;51.798;12.174;2023-04-01T02:32:42;8.33;;;2.80;;
2698;SDS011;1359;51.798;12.174;2023-04-01T02:35:11;4.87;;;2.37;;
2698;SDS011;1359;51.798;12.174;2023-04-01T02:37:38;2.43;;;1.73;;
2698;SDS011;1359;51.798;12.174;2023-04-01T02:40:04;4.33;;;2.40;;
2698;SDS011;1359;51.798;12.174;2023-04-01T02:42:32;3.10;;;2.43;;
2698;SDS011;1359;51.798;12.174;2023-04-01T02:44:57;2.67;;;2.37;;
2698;SDS011;1359;51.798;12.174;2023-04-01T02:47:23;7.60;;;2.00;;
2698;SDS011;1359;51.798;12.174;2023-04-01T02:49:48;3.90;;;1.83;;
2698;SDS011;1359;51.798;12.174;2023-04-01T02:52:13;2.37;;;1.87;;
2698;SDS011;1359;51.798;12.174;2023-04-01T02:54:39;8.07;;;2.60;;
2698;SDS011;1359;51.798;12.174;2023-04-01T02:57:04;2.23;;;1.90;;
2698;SDS011;1359;51.798;12.174;2023-04-01T02:59:29;4.03;;;2.53;;
2698;SDS011;1359;51.798;12.174;2023-04-01T03:01:55;3.63;;;2.10;;
2698;SDS011;1359;51.798;12.174;2023-04-01T03:04:20;5.10;;;1.97;;
2698;SDS011;1359;51.798;12.174;2023-04-01T03:06:45;3.43;;;2.40;;
2698;SDS011;1359;51.798;12.174;2023-04-01T03:09:11;5.30;;;2.30;;
2698;SDS011;1359;51.798;12.174;2023-04-01T03:11:36;9.63;;;2.20;;
2698;SDS011;1359;51.798;12.174;2023-04-01T03:14:01;4.13;;;1.90;;
2698;SDS011;1359;51.798;12.174;2023-04-01T03:16:27;3.13;;;2.13;;
2698;SDS011;1359;51.798;12.174;2023-04-01T03:18:52;4.33;;;2.20;;
2698;SDS011;1359;51.798;12.174;2023-04-01T03:21:20;4.00;;;2.00;;
2698;SDS011;1359;51.798;12.174;2023-04-01T03:23:46;8.63;;;2.43;;
2698;SDS011;1359;51.798;12.174;2023-04-01T03:26:11;4.10;;;2.13;;
2698;SDS011;1359;51.798;12.174;2023-04-01T03:28:37;6.13;;;2.60;;
2698;SDS011;1359;51.798;12.174;2023-04-01T03:31:02;4.63;;;2.20;;
2698;SDS011;1359;51.798;12.174;2023-04-01T03:33:32;3.50;;;1.93;;
2698;SDS011;1359;51.798;12.174;2023-04-01T03:35:58;5.03;;;2.03;;
2698;SDS011;1359;51.798;12.174;2023-04-01T03:38:23;2.53;;;2.33;;
2698;SDS011;1359;51.798;12.174;2023-04-01T03:40:49;4.13;;;2.40;;
2698;SDS011;1359;51.798;12.174;2023-04-01T03:43:14;1.90;;;1.70;;
2698;SDS011;1359;51.798;12.174;2023-04-01T03:45:45;3.43;;;2.40;;
2698;SDS011;1359;51.798;12.174;2023-04-01T03:48:12;2.30;;;2.10;;
2698;SDS011;1359;51.798;12.174;2023-04-01T03:50:37;3.63;;;2.40;;
2698;SDS011;1359;51.798;12.174;2023-04-01T03:53:02;4.63;;;2.87;;
2698;SDS011;1359;51.798;12.174;2023-04-01T03:55:28;4.43;;;2.50;;
2698;SDS011;1359;51.798;12.174;2023-04-01T03:57:53;3.00;;;2.13;;
2698;SDS011;1359;51.798;12.174;2023-04-01T04:00:18;5.80;;;2.13;;
2698;SDS011;1359;51.798;12.174;2023-04-01T04:02:48;14.10;;;2.30;;
2698;SDS011;1359;51.798;12.174;2023-04-01T04:05:19;5.10;;;2.20;;
2698;SDS011;1359;51.798;12.174;2023-04-01T04:07:44;3.50;;;2.40;;
2698;SDS011;1359;51.798;12.174;2023-04-01T04:10:10;8.07;;;2.40;;
2698;SDS011;1359;51.798;12.174;2023-04-01T04:12:35;3.50;;;2.50;;
2698;SDS011;1359;51.798;12.174;2023-04-01T04:15:01;6.90;;;2.20;;
2698;SDS011;1359;51.798;12.174;2023-04-01T04:17:26;5.30;;;2.50;;
2698;SDS011;1359;51.798;12.174;2023-04-01T04:19:52;4.83;;;2.40;;
2698;SDS011;1359;51.798;12.174;2023-04-01T04:22:17;4.13;;;2.50;;
2698;SDS011;1359;51.798;12.174;2023-04-01T04:24:43;3.27;;;2.17;;
2698;SDS011;1359;51.798;12.174;2023-04-01T04:27:11;4.90;;;2.47;;
2698;SDS011;1359;51.798;12.174;2023-04-01T04:29:43;2.90;;;2.50;;
2698;SDS011;1359;51.798;12.174;2023-04-01T04:32:09;3.87;;;2.30;;
2698;SDS011;1359;51.798;12.174;2023-04-01T04:34:35;3.63;;;2.13;;
2698;SDS011;1359;51.798;12.174;2023-04-01T04:37:00;4.23;;;2.23;;
2698;SDS011;1359;51.798;12.174;2023-04-01T04:39:29;3.63;;;2.80;;
2698;SDS011;1359;51.798;12.174;2023-04-01T04:41:54;4.27;;;2.40;;
2698;SDS011;1359;51.798;12.174;2023-04-01T04:44:20;3.93;;;2.60;;
2698;SDS011;1359;51.798;12.174;2023-04-01T04:46:45;10.67;;;2.40;;
2698;SDS011;1359;51.798;12.174;2023-04-01T04:49:13;2.13;;;1.93;;
2698;SDS011;1359;51.798;12.174;2023-04-01T04:51:38;3.33;;;2.03;;
2698;SDS011;1359;51.798;12.174;2023-04-01T04:54:04;3.37;;;2.60;;
2698;SDS011;1359;51.798;12.174;2023-04-01T04:56:50;3.10;;;2.20;;
2698;SDS011;1359;51.798;12.174;2023-04-01T04:59:16;3.90;;;2.20;;
2698;SDS011;1359;51.798;12.174;2023-04-01T05:01:47;5.03;;;2.57;;
2698;SDS011;1359;51.798;12.174;2023-04-01T05:04:13;3.90;;;1.90;;
2698;SDS011;1359;51.798;12.174;2023-04-01T05:06:38;3.70;;;2.10;;
2698;SDS011;1359;51.798;12.174;2023-04-01T05:09:04;3.13;;;2.20;;
2698;SDS011;1359;51.798;12.174;2023-04-01T05:11:29;3.93;;;2.50;;
2698;SDS011;1359;51.798;12.174;2023-04-01T05:13:55;6.87;;;2.27;;
2698;SDS011;1359;51.798;12.174;2023-04-01T05:16:21;2.43;;;2.17;;
2698;SDS011;1359;51.798;12.174;2023-04-01T05:18:46;5.73;;;1.83;;
2698;SDS011;1359;51.798;12.174;2023-04-01T05:21:13;2.40;;;2.07;;
2698;SDS011;1359;51.798;12.174;2023-04-01T05:23:38;5.23;;;4.60;;
2698;SDS011;1359;51.798;12.174;2023-04-01T05:26:04;11.43;;;6.50;;
2698;SDS011;1359;51.798;12.174;2023-04-01T05:28:31;7.40;;;4.50;;
2698;SDS011;1359;51.798;12.174;2023-04-01T05:30:58;6.70;;;5.50;;
2698;SDS011;1359;51.798;12.174;2023-04-01T05:33:26;6.80;;;4.77;;
2698;SDS011;1359;51.798;12.174;2023-04-01T05:35:51;6.93;;;3.93;;
2698;SDS011;1359;51.798;12.174;2023-04-01T05:38:17;7.67;;;5.20;;
2698;SDS011;1359;51.798;12.174;2023-04-01T05:40:42;9.47;;;5.97;;
2698;SDS011;1359;51.798;12.174;2023-04-01T05:43:07;13.33;;;5.77;;
2698;SDS011;1359;51.798;12.174;2023-04-01T05:45:33;13.50;;;6.00;;
2698;SDS011;1359;51.798;12.174;2023-04-01T05:48:19;7.40;;;3.63;;
2698;SDS011;1359;51.798;12.174;2023-04-01T05:50:44;4.60;;;3.40;;
2698;SDS011;1359;51.798;12.174;2023-04-01T05:53:10;4.00;;;3.67;;
2698;SDS011;1359;51.798;12.174;2023-04-01T05:55:36;5.27;;;3.83;;
2698;SDS011;1359;51.798;12.174;2023-04-01T05:58:02;3.97;;;2.93;;
2698;SDS011;1359;51.798;12.174;2023-04-01T06:00:28;3.20;;;2.53;;
2698;SDS011;1359;51.798;12.174;2023-04-01T06:02:57;4.17;;;2.77;;
2698;SDS011;1359;51.798;12.174;2023-04-01T06:05:24;5.77;;;4.27;;
2698;SDS011;1359;51.798;12.174;2023-04-01T06:08:01;6.03;;;3.67;;
2698;SDS011;1359;51.798;12.174;2023-04-01T06:10:44;7.60;;;3.90;;
2698;SDS011;1359;51.798;12.174;2023-04-01T06:16:13;2.63;;;2.43;;
2698;SDS011;1359;51.798;12.174;2023-04-01T06:18:52;4.63;;;2.57;;
2698;SDS011;1359;51.798;12.174;2023-04-01T06:24:18;6.20;;;2.57;;
2698;SDS011;1359;51.798;12.174;2023-04-01T06:29:54;4.40;;;2.67;;
2698;SDS011;1359;51.798;12.174;2023-04-01T06:32:31;6.67;;;2.50;;
2698;SDS011;1359;51.798;12.174;2023-04-01T06:35:11;2.97;;;2.10;;
2698;SDS011;1359;51.798;12.174;2023-04-01T06:40:22;3.13;;;2.40;;
2698;SDS011;1359;51.798;12.174;2023-04-01T06:45:50;6.57;;;2.23;;
2698;SDS011;1359;51.798;12.174;2023-04-01T06:51:23;4.53;;;1.67;;
2698;SDS011;1359;51.798;12.174;2023-04-01T06:56:56;5.87;;;2.30;;
2698;SDS011;1359;51.798;12.174;2023-04-01T06:59:28;4.83;;;3.00;;
2698;SDS011;1359;51.798;12.174;2023-04-01T07:02:00;4.33;;;2.13;;
2698;SDS011;1359;51.798;12.174;2023-04-01T07:07:10;3.23;;;2.70;;
2698;SDS011;1359;51.798;12.174;2023-04-01T07:09:52;4.27;;;2.27;;
2698;SDS011;1359;51.798;12.174;2023-04-01T07:17:42;4.20;;;1.70;;
2698;SDS011;1359;51.798;12.174;2023-04-01T07:20:13;2.90;;;2.40;;
2698;SDS011;1359;51.798;12.174;2023-04-01T07:22:45;3.87;;;2.20;;
2698;SDS011;1359;51.798;12.174;2023-04-01T07:25:24;7.43;;;2.40;;
2698;SDS011;1359;51.798;12.174;2023-04-01T07:28:05;7.20;;;2.50;;
2698;SDS011;1359;51.798;12.174;2023-04-01T07:33:16;5.93;;;3.30;;
2698;SDS011;1359;51.798;12.174;2023-04-01T07:35:46;7.60;;;2.47;;
2698;SDS011;1359;51.798;12.174;2023-04-01T07:38:32;5.63;;;2.20;;
2698;SDS011;1359;51.798;12.174;2023-04-01T07:41:05;2.70;;;1.93;;
2698;SDS011;1359;51.798;12.174;2023-04-01T07:46:34;2.90;;;2.50;;
2698;SDS011;1359;51.798;12.174;2023-04-01T07:49:04;3.30;;;1.67;;
2698;SDS011;1359;51.798;12.174;2023-04-01T07:51:35;3.03;;;2.53;;
2698;SDS011;1359;51.798;12.174;2023-04-01T07:56:46;3.80;;;2.20;;
2698;SDS011;1359;51.798;12.174;2023-04-01T08:07:12;3.67;;;1.53;;
2698;SDS011;1359;51.798;12.174;2023-04-01T08:18:59;5.27;;;1.63;;
2698;SDS011;1359;51.798;12.174;2023-04-01T08:21:49;2.23;;;1.57;;
2698;SDS011;1359;51.798;12.174;2023-04-01T08:26:57;3.03;;;1.37;;
2698;SDS011;1359;51.798;12.174;2023-04-01T08:32:03;4.90;;;1.83;;
2698;SDS011;1359;51.798;12.174;2023-04-01T08:34:36;2.40;;;1.60;;
2698;SDS011;1359;51.798;12.174;2023-04-01T08:37:15;2.93;;;1.60;;
2698;SDS011;1359;51.798;12.174;2023-04-01T08:45:10;1.90;;;1.40;;
2698;SDS011;1359;51.798;12.174;2023-04-01T08:47:40;3.10;;;1.77;;
2698;SDS011;1359;51.798;12.174;2023-04-01T08:50:30;2.40;;;1.60;;
2698;SDS011;1359;51.798;12.174;2023-04-01T08:53:21;3.40;;;2.80;;
2698;SDS011;1359;51.798;12.174;2023-04-01T08:58:47;3.77;;;2.60;;
2698;SDS011;1359;51.798;12.174;2023-04-01T09:04:14;4.03;;;1.87;;
2698;SDS011;1359;51.798;12.174;2023-04-01T09:09:45;2.67;;;1.90;;
2698;SDS011;1359;51.798;12.174;2023-04-01T09:12:34;5.30;;;2.27;;
2698;SDS011;1359;51.798;12.174;2023-04-01T09:17:38;2.10;;;1.50;;
2698;SDS011;1359;51.798;12.174;2023-04-01T09:20:17;4.10;;;1.83;;
2698;SDS011;1359;51.798;12.174;2023-04-01T09:25:34;3.63;;;1.93;;
2698;SDS011;1359;51.798;12.174;2023-04-01T09:33:20;2.30;;;1.70;;
2698;SDS011;1359;51.798;12.174;2023-04-01T09:38:22;3.80;;;1.60;;
2698;SDS011;1359;51.798;12.174;2023-04-01T09:41:31;2.30;;;1.67;;
2698;SDS011;1359;51.798;12.174;2023-04-01T09:44:08;3.23;;;2.10;;
2698;SDS011;1359;51.798;12.174;2023-04-01T09:46:58;5.00;;;2.03;;
2698;SDS011;1359;51.798;12.174;2023-04-01T09:52:24;1.93;;;1.40;;
2698;SDS011;1359;51.798;12.174;2023-04-01T09:57:39;2.80;;;1.93;;
2698;SDS011;1359;51.798;12.174;2023-04-01T10:05:49;3.50;;;1.60;;
2698;SDS011;1359;51.798;12.174;2023-04-01T10:08:33;3.97;;;1.40;;
2698;SDS011;1359;51.798;12.174;2023-04-01T10:11:15;2.63;;;1.70;;
2698;SDS011;1359;51.798;12.174;2023-04-01T10:13:52;3.57;;;1.63;;
2698;SDS011;1359;51.798;12.174;2023-04-01T10:16:25;2.57;;;1.20;;
2698;SDS011;1359;51.798;12.174;2023-04-01T10:21:46;4.27;;;1.30;;
2698;SDS011;1359;51.798;12.174;2023-04-01T10:24:26;2.63;;;1.70;;
2698;SDS011;1359;51.798;12.174;2023-04-01T10:27:07;1.60;;;1.20;;
2698;SDS011;1359;51.798;12.174;2023-04-01T10:30:16;4.23;;;1.60;;
2698;SDS011;1359;51.798;12.174;2023-04-01T10:33:01;3.70;;;1.33;;
2698;SDS011;1359;51.798;12.174;2023-04-01T10:38:16;1.50;;;1.07;;
2698;SDS011;1359;51.798;12.174;2023-04-01T10:43:58;3.00;;;1.57;;
2698;SDS011;1359;51.798;12.174;2023-04-01T10:57:54;3.40;;;1.60;;
2698;SDS011;1359;51.798;12.174;2023-04-01T11:04:23;4.03;;;1.63;;
2698;SDS011;1359;51.798;12.174;2023-04-01T11:10:19;6.77;;;1.60;;
2698;SDS011;1359;51.798;12.174;2023-04-01T11:15:48;7.57;;;3.83;;
2698;SDS011;1359;51.798;12.174;2023-04-01T11:24:07;3.20;;;1.50;;
2698;SDS011;1359;51.798;12.174;2023-04-01T11:35:17;2.30;;;1.80;;
2698;SDS011;1359;51.798;12.174;2023-04-01T11:37:49;2.20;;;1.30;;
2698;SDS011;1359;51.798;12.174;2023-04-01T11:43:34;9.07;;;4.27;;
2698;SDS011;1359;51.798;12.174;2023-04-01T11:51:36;3.30;;;1.63;;
2698;SDS011;1359;51.798;12.174;2023-04-01T11:54:14;3.20;;;1.90;;
2698;SDS011;1359;51.798;12.174;2023-04-01T11:56:51;4.50;;;1.83;;
2698;SDS011;1359;51.798;12.174;2023-04-01T12:02:02;8.23;;;2.60;;
2698;SDS011;1359;51.798;12.174;2023-04-01T12:07:00;4.30;;;1.87;;
2698;SDS011;1359;51.798;12.174;2023-04-01T12:09:34;3.87;;;1.37;;
2698;SDS011;1359;51.798;12.174;2023-04-01T12:12:07;2.43;;;1.60;;
2698;SDS011;1359;51.798;12.174;2023-04-01T12:14:38;3.27;;;1.87;;
2698;SDS011;1359;51.798;12.174;2023-04-01T12:19:46;2.67;;;1.43;;
2698;SDS011;1359;51.798;12.174;2023-04-01T12:30:14;2.40;;;1.87;;
2698;SDS011;1359;51.798;12.174;2023-04-01T12:32:55;3.50;;;1.50;;
2698;SDS011;1359;51.798;12.174;2023-04-01T12:35:40;2.40;;;1.20;;
2698;SDS011;1359;51.798;12.174;2023-04-01T12:40:45;3.40;;;1.30;;
2698;SDS011;1359;51.798;12.174;2023-04-01T12:51:17;1.60;;;1.30;;
2698;SDS011;1359;51.798;12.174;2023-04-01T12:59:52;2.40;;;1.23;;
2698;SDS011;1359;51.798;12.174;2023-04-01T13:10:02;1.60;;;1.50;;
2698;SDS011;1359;51.798;12.174;2023-04-01T13:12:35;1.90;;;1.60;;
2698;SDS011;1359;51.798;12.174;2023-04-01T13:17:42;1.80;;;1.60;;
2698;SDS011;1359;51.798;12.174;2023-04-01T13:22:41;2.53;;;1.60;;
2698;SDS011;1359;51.798;12.174;2023-04-01T13:27:40;3.30;;;1.83;;
2698;SDS011;1359;51.798;12.174;2023-04-01T13:35:20;2.20;;;1.27;;
2698;SDS011;1359;51.798;12.174;2023-04-01T13:40:27;2.90;;;1.27;;
2698;SDS011;1359;51.798;12.174;2023-04-01T13:42:57;3.30;;;1.73;;
2698;SDS011;1359;51.798;12.174;2023-04-01T13:45:29;2.10;;;1.33;;
2698;SDS011;1359;51.798;12.174;2023-04-01T13:58:55;2.43;;;1.50;;
2698;SDS011;1359;51.798;12.174;2023-04-01T14:01:41;1.70;;;1.43;;
2698;SDS011;1359;51.798;12.174;2023-04-01T14:09:36;1.93;;;1.00;;
2698;SDS011;1359;51.798;12.174;2023-04-01T14:20:20;1.40;;;0.97;;
2698;SDS011;1359;51.798;12.174;2023-04-01T14:28:07;2.37;;;1.40;;
2698;SDS011;1359;51.798;12.174;2023-04-01T14:30:35;1.73;;;1.50;;
2698;SDS011;1359;51.798;12.174;2023-04-01T14:35:38;1.47;;;1.10;;
2698;SDS011;1359;51.798;12.174;2023-04-01T14:41:05;1.50;;;1.07;;
2698;SDS011;1359;51.798;12.174;2023-04-01T14:48:51;1.60;;;1.37;;
2698;SDS011;1359;51.798;12.174;2023-04-01T14:51:20;2.33;;;1.47;;
2698;SDS011;1359;51.798;12.174;2023-04-01T14:53:53;1.60;;;1.50;;
2698;SDS011;1359;51.798;12.174;2023-04-01T14:59:48;1.90;;;1.70;;
2698;SDS011;1359;51.798;12.174;2023-04-01T15:02:03;2.10;;;1.90;;
2698;SDS011;1359;51.798;12.174;2023-04-01T15:04:44;1.60;;;1.50;;
2698;SDS011;1359;51.798;12.174;2023-04-01T15:09:42;1.90;;;1.60;;
2698;SDS011;1359;51.798;12.174;2023-04-01T15:19:59;2.00;;;1.53;;
2698;SDS011;1359;51.798;12.174;2023-04-01T15:22:31;2.23;;;1.63;;
2698;SDS011;1359;51.798;12.174;2023-04-01T15:25:05;1.97;;;1.23;;
2698;SDS011;1359;51.798;12.174;2023-04-01T15:30:27;1.77;;;1.60;;
2698;SDS011;1359;51.798;12.174;2023-04-01T15:35:41;4.53;;;4.23;;
2698;SDS011;1359;51.798;12.174;2023-04-01T15:48:37;2.17;;;1.90;;
2698;SDS011;1359;51.798;12.174;2023-04-01T15:53:37;2.27;;;2.00;;
2698;SDS011;1359;51.798;12.174;2023-04-01T15:59:04;1.90;;;1.70;;
2698;SDS011;1359;51.798;12.174;2023-04-01T16:01:35;2.00;;;1.60;;
2698;SDS011;1359;51.798;12.174;2023-04-01T16:06:41;2.47;;;1.47;;
2698;SDS011;1359;51.798;12.174;2023-04-01T16:12:00;2.20;;;2.00;;
2698;SDS011;1359;51.798;12.174;2023-04-01T16:17:17;2.20;;;1.70;;
2698;SDS011;1359;51.798;12.174;2023-04-01T16:20:34;3.07;;;2.47;;
2698;SDS011;1359;51.798;12.174;2023-04-01T16:22:37;8.80;;;2.10;;
2698;SDS011;1359;51.798;12.174;2023-04-01T16:27:58;3.80;;;2.40;;
2698;SDS011;1359;51.798;12.174;2023-04-01T16:30:35;3.00;;;1.70;;
2698;SDS011;1359;51.798;12.174;2023-04-01T16:43:25;4.00;;;3.13;;
2698;SDS011;1359;51.798;12.174;2023-04-01T16:45:56;3.27;;;2.97;;
2698;SDS011;1359;51.798;12.174;2023-04-01T16:48:25;2.97;;;2.77;;
2698;SDS011;1359;51.798;12.174;2023-04-01T16:50:59;2.23;;;2.03;;
2698;SDS011;1359;51.798;12.174;2023-04-01T16:53:30;2.93;;;2.67;;
2698;SDS011;1359;51.798;12.174;2023-04-01T16:58:27;3.60;;;3.30;;
2698;SDS011;1359;51.798;12.174;2023-04-01T17:01:04;5.40;;;2.90;;
2698;SDS011;1359;51.798;12.174;2023-04-01T17:03:36;3.03;;;2.83;;
2698;SDS011;1359;51.798;12.174;2023-04-01T17:06:19;3.00;;;2.73;;
2698;SDS011;1359;51.798;12.174;2023-04-01T17:11:32;4.10;;;2.67;;
2698;SDS011;1359;51.798;12.174;2023-04-01T17:21:45;8.00;;;7.03;;
2698;SDS011;1359;51.798;12.174;2023-04-01T17:24:24;6.80;;;5.13;;
2698;SDS011;1359;51.798;12.174;2023-04-01T17:29:18;4.50;;;4.10;;
2698;SDS011;1359;51.798;12.174;2023-04-01T17:31:52;7.00;;;6.30;;
2698;SDS011;1359;51.798;12.174;2023-04-01T17:39:54;8.30;;;4.83;;
2698;SDS011;1359;51.798;12.174;2023-04-01T17:42:24;4.20;;;3.90;;
2698;SDS011;1359;51.798;12.174;2023-04-01T17:45:00;5.13;;;4.73;;
2698;SDS011;1359;51.798;12.174;2023-04-01T17:47:37;6.77;;;6.17;;
2698;SDS011;1359;51.798;12.174;2023-04-01T17:50:20;4.70;;;4.30;;
2698;SDS011;1359;51.798;12.174;2023-04-01T17:52:48;8.27;;;4.63;;
2698;SDS011;1359;51.798;12.174;2023-04-01T17:57:54;5.80;;;5.30;;
2698;SDS011;1359;51.798;12.174;2023-04-01T18:00:30;6.03;;;5.47;;
2698;SDS011;1359;51.798;12.174;2023-04-01T18:10:25;4.90;;;4.50;;
2698;SDS011;1359;51.798;12.174;2023-04-01T18:15:49;4.73;;;4.33;;
2698;SDS011;1359;51.798;12.174;2023-04-01T18:18:35;5.00;;;4.60;;
2698;SDS011;1359;51.798;12.174;2023-04-01T18:21:18;4.53;;;4.13;;
2698;SDS011;1359;51.798;12.174;2023-04-01T18:26:33;5.53;;;5.13;;
2698;SDS011;1359;51.798;12.174;2023-04-01T18:29:02;9.20;;;5.40;;
2698;SDS011;1359;51.798;12.174;2023-04-01T18:32:11;6.13;;;5.53;;
2698;SDS011;1359;51.798;12.174;2023-04-01T18:36:53;6.63;;;5.80;;
2698;SDS011;1359;51.798;12.174;2023-04-01T18:44:46;4.37;;;3.97;;
2698;SDS011;1359;51.798;12.174;2023-04-01T18:50:02;4.73;;;3.70;;
2698;SDS011;1359;51.798;12.174;2023-04-01T18:52:41;3.60;;;2.93;;
2698;SDS011;1359;51.798;12.174;2023-04-01T18:55:18;4.70;;;4.30;;
2698;SDS011;1359;51.798;12.174;2023-04-01T18:57:52;5.17;;;3.43;;
2698;SDS011;1359;51.798;12.174;2023-04-01T19:00:19;3.77;;;3.43;;
2698;SDS011;1359;51.798;12.174;2023-04-01T19:05:31;4.30;;;3.93;;
2698;SDS011;1359;51.798;12.174;2023-04-01T19:08:13;3.90;;;3.57;;
2698;SDS011;1359;51.798;12.174;2023-04-01T19:15:41;3.40;;;3.10;;
2698;SDS011;1359;51.798;12.174;2023-04-01T19:18:16;3.47;;;3.20;;
2698;SDS011;1359;51.798;12.174;2023-04-01T19:20:51;3.90;;;3.50;;
2698;SDS011;1359;51.798;12.174;2023-04-01T19:23:29;4.10;;;3.80;;
2698;SDS011;1359;51.798;12.174;2023-04-01T19:25:57;4.73;;;4.30;;
2698;SDS011;1359;51.798;12.174;2023-04-01T19:35:55;3.20;;;3.00;;
2698;SDS011;1359;51.798;12.174;2023-04-01T19:38:28;4.47;;;4.07;;
2698;SDS011;1359;51.798;12.174;2023-04-01T19:40:57;4.50;;;3.70;;
2698;SDS011;1359;51.798;12.174;2023-04-01T19:48:29;4.70;;;4.30;;
2698;SDS011;1359;51.798;12.174;2023-04-01T19:51:06;4.87;;;4.40;;
2698;SDS011;1359;51.798;12.174;2023-04-01T19:56:12;4.20;;;3.87;;
2698;SDS011;1359;51.798;12.174;2023-04-01T19:58:42;4.67;;;4.37;;
2698;SDS011;1359;51.798;12.174;2023-04-01T20:01:13;4.33;;;3.93;;
2698;SDS011;1359;51.798;12.174;2023-04-01T20:06:28;4.63;;;4.20;;
2698;SDS011;1359;51.798;12.174;2023-04-01T20:09:09;4.10;;;3.80;;
2698;SDS011;1359;51.798;12.174;2023-04-01T20:19:21;5.80;;;5.30;;
2698;SDS011;1359;51.798;12.174;2023-04-01T20:21:50;5.13;;;4.70;;
2698;SDS011;1359;51.798;12.174;2023-04-01T20:26:43;6.77;;;5.90;;
2698;SDS011;1359;51.798;12.174;2023-04-01T20:29:24;7.07;;;6.07;;
2698;SDS011;1359;51.798;12.174;2023-04-01T20:32:08;7.23;;;6.60;;
2698;SDS011;1359;51.798;12.174;2023-04-01T20:34:43;7.47;;;6.87;;
2698;SDS011;1359;51.798;12.174;2023-04-01T20:40:17;7.07;;;6.37;;
2698;SDS011;1359;51.798;12.174;2023-04-01T20:43:03;7.07;;;6.37;;
2698;SDS011;1359;51.798;12.174;2023-04-01T20:51:03;7.13;;;6.40;;
2698;SDS011;1359;51.798;12.174;2023-04-01T20:53:42;5.83;;;5.33;;
2698;SDS011;1359;51.798;12.174;2023-04-01T20:56:22;6.50;;;4.53;;
2698;SDS011;1359;51.798;12.174;2023-04-01T20:59:02;5.10;;;4.60;;
2698;SDS011;1359;51.798;12.174;2023-04-01T21:09:33;8.10;;;7.30;;
2698;SDS011;1359;51.798;12.174;2023-04-01T21:12:13;7.80;;;6.80;;
2698;SDS011;1359;51.798;12.174;2023-04-01T21:19:55;7.80;;;7.17;;
2698;SDS011;1359;51.798;12.174;2023-04-01T21:22:28;7.37;;;6.67;;
2698;SDS011;1359;51.798;12.174;2023-04-01T21:25:01;6.27;;;5.63;;
2698;SDS011;1359;51.798;12.174;2023-04-01T21:27:39;8.27;;;7.47;;
2698;SDS011;1359;51.798;12.174;2023-04-01T21:32:54;7.60;;;6.90;;
2698;SDS011;1359;51.798;12.174;2023-04-01T21:40:41;6.50;;;5.90;;
2698;SDS011;1359;51.798;12.174;2023-04-01T21:43:33;9.90;;;5.23;;
2698;SDS011;1359;51.798;12.174;2023-04-01T21:46:11;6.53;;;5.90;;
2698;SDS011;1359;51.798;12.174;2023-04-01T21:49:00;6.10;;;5.50;;
2698;SDS011;1359;51.798;12.174;2023-04-01T22:04:10;5.03;;;4.63;;
2698;SDS011;1359;51.798;12.174;2023-04-01T22:06:45;6.37;;;5.87;;
2698;SDS011;1359;51.798;12.174;2023-04-01T22:09:24;5.03;;;4.40;;
2698;SDS011;1359;51.798;12.174;2023-04-01T22:11:56;5.60;;;4.87;;
2698;SDS011;1359;51.798;12.174;2023-04-01T22:16:58;6.57;;;5.63;;
2698;SDS011;1359;51.798;12.174;2023-04-01T22:24:34;5.83;;;5.33;;
2698;SDS011;1359;51.798;12.174;2023-04-01T22:29:42;5.20;;;4.80;;
2698;SDS011;1359;51.798;12.174;2023-04-01T22:37:37;4.00;;;3.60;;
2698;SDS011;1359;51.798;12.174;2023-04-01T22:40:12;6.03;;;4.83;;
2698;SDS011;1359;51.798;12.174;2023-04-01T22:42:46;5.33;;;4.93;;
2698;SDS011;1359;51.798;12.174;2023-04-01T22:50:18;5.27;;;4.77;;
2698;SDS011;1359;51.798;12.174;2023-04-01T22:52:46;4.57;;;4.27;;
2698;SDS011;1359;51.798;12.174;2023-04-01T22:57:52;4.00;;;3.70;;
2698;SDS011;1359;51.798;12.174;2023-04-01T23:03:05;4.83;;;4.43;;
2698;SDS011;1359;51.798;12.174;2023-04-01T23:05:32;5.30;;;4.80;;
2698;SDS011;1359;51.798;12.174;2023-04-01T23:10:27;5.23;;;4.73;;
2698;SDS011;1359;51.798;12.174;2023-04-01T23:12:55;5.40;;;4.90;;
2698;SDS011;1359;51.798;12.174;2023-04-01T23:15:21;5.00;;;4.60;;